Hovedside
METAR-TAF:

METAR-TAF

Lufthavner :

Anchorage, Alaska, USA

breddegrad: 61-11N, lengdegrad: 149-58W, høyde over havet: 22 m

Gjeldene værobservasjon

Denne rapporten ble laget for 27 minutter siden, klokken 18:53 UTC
Vind 5 kt fra Nordøst
Temperatur -2°C
Luftfuktighet 86%
Trykk 991 hPa
Sikt: 16.1 km
Skyfri himmel

METAR: PALH 121853Z 04005KT 10SM CLR M02/M04 A2926 RMK AO2 SLP909 T10171044

Tid: 10:20 (19:20 UTC)


TAF: fraværende

Værobservasjoner og værvarsel for over 4000 flyplasser (METAR- og TAF-rapporter).

Tilgjengelige stasjoner er representert av de røde og gule prikkene på kartet.

Hold musepekeren over prikken for å se navnet på stasjonen.

Klikk så for å se værobservasjoner og -varsler.

For å forandre kartet kan du klikke på den grønne knappen med svart kryss for å zoome inn, på den grønne knappen med strek for å zoome ut, eller på de grønne pilene for å se tilstøtende kart.


METAR-TAF: